createdAt,value
2018-05-16T00:02:01.378Z,18.70
2018-05-16T00:04:28.844Z,18.60
2018-05-16T00:06:57.366Z,18.50
2018-05-16T00:09:24.919Z,18.50
2018-05-16T00:11:52.371Z,18.40
2018-05-16T00:14:19.856Z,18.40
2018-05-16T00:16:47.340Z,18.30
2018-05-16T00:19:14.796Z,18.20
2018-05-16T00:21:42.279Z,18.20
2018-05-16T00:24:09.731Z,18.20
2018-05-16T00:26:37.217Z,18.10
2018-05-16T00:29:04.672Z,18.10
2018-05-16T00:31:32.897Z,18.00
2018-05-16T00:34:00.369Z,18.00
2018-05-16T00:36:27.852Z,18.00
2018-05-16T00:38:55.433Z,18.00
2018-05-16T00:41:22.899Z,17.90
2018-05-16T00:43:50.386Z,17.90
2018-05-16T00:46:17.861Z,17.80
2018-05-16T00:48:45.320Z,17.80
2018-05-16T00:51:24.576Z,17.80
2018-05-16T00:53:52.801Z,17.70
2018-05-16T00:56:20.285Z,17.60
2018-05-16T00:58:47.759Z,17.60
2018-05-16T01:01:15.215Z,17.60
2018-05-16T01:03:42.692Z,17.60
2018-05-16T01:06:10.919Z,17.50
2018-05-16T01:08:38.399Z,17.50
2018-05-16T01:11:05.867Z,17.50
2018-05-16T01:13:33.359Z,17.50
2018-05-16T01:16:00.807Z,17.60
2018-05-16T01:18:29.035Z,17.50
2018-05-16T01:20:56.552Z,17.50
2018-05-16T01:23:24.018Z,17.50
2018-05-16T01:25:51.508Z,17.40
2018-05-16T01:28:19.004Z,17.40
2018-05-16T01:30:46.486Z,17.40
2018-05-16T01:33:13.969Z,17.40
2018-05-16T01:35:41.453Z,17.40
2018-05-16T01:38:08.920Z,17.50
2018-05-16T01:40:36.417Z,17.50
2018-05-16T01:43:04.639Z,17.60
2018-05-16T01:45:32.884Z,17.60
2018-05-16T01:48:00.369Z,17.60
2018-05-16T01:50:27.824Z,17.70
2018-05-16T01:52:55.316Z,17.70
2018-05-16T01:55:22.766Z,17.70
2018-05-16T01:57:50.247Z,17.70
2018-05-16T02:00:18.524Z,17.70
2018-05-16T02:02:46.857Z,17.70
2018-05-16T02:05:14.313Z,17.70
2018-05-16T02:07:41.784Z,17.70
2018-05-16T02:10:09.275Z,17.70
2018-05-16T02:12:36.741Z,17.60
2018-05-16T02:15:04.979Z,17.60
2018-05-16T02:17:32.447Z,17.60
2018-05-16T02:19:59.916Z,17.60
2018-05-16T02:22:27.396Z,17.60
2018-05-16T02:24:55.644Z,17.60
2018-05-16T02:29:56.944Z,17.60
2018-05-16T02:32:24.399Z,17.60
2018-05-16T02:34:52.654Z,17.60
2018-05-16T02:37:20.235Z,17.60
2018-05-16T02:39:47.649Z,17.60
2018-05-16T02:42:15.128Z,17.60
2018-05-16T02:44:42.609Z,17.60
2018-05-16T02:47:10.844Z,17.60
2018-05-16T02:49:38.328Z,17.60
2018-05-16T02:52:06.551Z,17.60
2018-05-16T02:54:34.175Z,17.60
2018-05-16T02:57:01.517Z,17.60
2018-05-16T02:59:29.004Z,17.60
2018-05-16T03:01:56.495Z,17.60
2018-05-16T03:04:23.981Z,17.50
2018-05-16T03:06:51.474Z,17.50
2018-05-16T03:09:18.951Z,17.60
2018-05-16T03:11:47.173Z,17.50
2018-05-16T03:14:14.660Z,17.50
2018-05-16T03:16:42.887Z,17.40
2018-05-16T03:19:10.347Z,17.40
2018-05-16T03:21:37.828Z,17.30
2018-05-16T03:24:05.321Z,17.20
2018-05-16T03:26:32.781Z,17.20
2018-05-16T03:29:00.354Z,17.10
2018-05-16T03:31:27.821Z,17.00
2018-05-16T03:33:55.275Z,16.90
2018-05-16T03:36:22.761Z,16.90
2018-05-16T03:38:50.222Z,16.80
2018-05-16T03:41:17.707Z,16.80
2018-05-16T03:43:45.241Z,16.70
2018-05-16T03:46:12.757Z,16.70
2018-05-16T03:48:40.264Z,16.60
2018-05-16T03:51:07.735Z,16.60
2018-05-16T03:53:35.621Z,16.60
2018-05-16T03:56:03.104Z,16.50
2018-05-16T03:58:42.373Z,16.50
2018-05-16T04:01:21.769Z,16.50
2018-05-16T04:04:01.004Z,16.50
2018-05-16T04:06:28.633Z,16.40
2018-05-16T04:08:56.087Z,16.40
2018-05-16T04:11:23.548Z,16.40
2018-05-16T04:13:51.393Z,16.40
2018-05-16T04:16:18.924Z,16.40
2018-05-16T04:18:46.462Z,16.40
2018-05-16T04:21:14.719Z,16.40
2018-05-16T04:23:42.944Z,16.50
2018-05-16T04:26:10.438Z,16.50
2018-05-16T04:28:37.938Z,16.50
2018-05-16T04:31:05.479Z,16.50
2018-05-16T04:33:32.964Z,16.50
2018-05-16T04:36:00.511Z,16.50
2018-05-16T04:38:28.752Z,16.60
2018-05-16T04:40:56.272Z,16.60
2018-05-16T04:43:23.741Z,16.60
2018-05-16T04:45:51.219Z,16.60
2018-05-16T04:48:18.689Z,16.50
2018-05-16T04:50:46.181Z,16.60
2018-05-16T04:53:13.676Z,16.60
2018-05-16T04:55:41.185Z,16.60
2018-05-16T04:58:08.616Z,16.60
2018-05-16T05:00:36.100Z,16.60
2018-05-16T05:03:04.336Z,16.70
2018-05-16T05:05:31.827Z,16.70
2018-05-16T05:07:59.292Z,16.70
2018-05-16T05:10:26.747Z,16.80
2018-05-16T05:12:54.236Z,16.80
2018-05-16T05:15:21.703Z,16.90
2018-05-16T05:17:49.172Z,16.90
2018-05-16T05:20:16.670Z,17.00
2018-05-16T05:22:44.149Z,17.00
2018-05-16T05:25:11.604Z,17.00
2018-05-16T05:27:39.094Z,17.00
2018-05-16T05:30:06.550Z,17.00
2018-05-16T05:32:34.060Z,17.00
2018-05-16T05:35:01.544Z,17.10
2018-05-16T05:37:29.795Z,17.10
2018-05-16T05:39:57.337Z,17.10
2018-05-16T05:42:24.816Z,17.20
2018-05-16T05:44:52.300Z,17.20
2018-05-16T05:47:19.821Z,17.20
2018-05-16T05:49:48.061Z,17.40
2018-05-16T05:52:15.536Z,17.40
2018-05-16T05:54:43.000Z,17.50
2018-05-16T05:57:10.494Z,17.60
2018-05-16T05:59:37.984Z,17.70
2018-05-16T06:02:05.435Z,17.70
2018-05-16T06:04:32.924Z,17.70
2018-05-16T06:07:00.409Z,17.70
2018-05-16T06:09:27.911Z,17.90
2018-05-16T06:11:55.376Z,18.00
2018-05-16T06:14:22.948Z,18.10
2018-05-16T06:16:50.401Z,18.30
2018-05-16T06:19:17.877Z,18.40
2018-05-16T06:21:45.376Z,18.50
2018-05-16T06:24:12.859Z,18.60
2018-05-16T06:26:40.348Z,18.60
2018-05-16T06:29:08.003Z,18.70
2018-05-16T06:31:35.493Z,18.70
2018-05-16T06:34:02.957Z,18.70
2018-05-16T06:36:30.421Z,18.60
2018-05-16T06:38:57.949Z,18.60
2018-05-16T06:41:25.413Z,18.50
2018-05-16T06:43:52.875Z,18.60
2018-05-16T06:46:20.356Z,18.70
2018-05-16T06:48:47.821Z,18.80
2018-05-16T06:51:15.299Z,18.80
2018-05-16T06:53:43.549Z,18.90
2018-05-16T06:56:11.024Z,18.90
2018-05-16T06:58:38.492Z,18.90
2018-05-16T07:35:25.413Z,19.20
2018-05-16T07:37:52.884Z,19.20
2018-05-16T07:40:20.395Z,19.60
2018-05-16T07:42:47.864Z,19.90
2018-05-16T07:45:15.395Z,20.20
2018-05-16T07:47:42.896Z,20.40
2018-05-16T07:50:10.367Z,20.60
2018-05-16T07:52:37.865Z,20.70
2018-05-16T07:55:06.120Z,21.00
2018-05-16T07:57:33.629Z,21.00
2018-05-16T08:00:01.100Z,21.20
2018-05-16T08:02:28.617Z,21.40
2018-05-16T08:04:56.088Z,21.50
2018-05-16T08:07:23.573Z,21.60
2018-05-16T08:09:51.119Z,21.60
2018-05-16T08:12:18.694Z,21.50
2018-05-16T08:14:46.076Z,21.60
2018-05-16T08:17:13.567Z,21.60
2018-05-16T08:19:41.036Z,21.70
2018-05-16T08:22:08.524Z,21.70
2018-05-16T08:24:35.983Z,21.70
2018-05-16T08:27:03.540Z,21.70
2018-05-16T08:29:31.037Z,21.80
2018-05-16T08:31:58.501Z,21.90
2018-05-16T08:34:25.976Z,22.00
2018-05-16T08:36:53.530Z,21.90
2018-05-16T08:39:21.021Z,21.80
2018-05-16T08:41:48.509Z,21.80
2018-05-16T08:44:15.964Z,21.80
2018-05-16T08:46:43.436Z,21.80
2018-05-16T08:49:10.965Z,21.80
2018-05-16T08:51:38.433Z,21.80
2018-05-16T08:54:05.921Z,21.70
2018-05-16T08:56:33.404Z,21.70
2018-05-16T08:59:01.660Z,21.50
2018-05-16T09:01:29.124Z,21.50
2018-05-16T09:03:56.596Z,21.50
2018-05-16T09:06:24.945Z,21.50
2018-05-16T09:08:52.404Z,21.40
2018-05-16T09:11:19.867Z,21.50
2018-05-16T09:13:47.355Z,21.50
2018-05-16T09:16:15.618Z,21.40
2018-05-16T09:18:43.086Z,21.40
2018-05-16T09:21:10.539Z,21.40
2018-05-16T09:23:38.144Z,21.40
2018-05-16T09:26:05.616Z,21.30
2018-05-16T09:28:33.112Z,21.30
2018-05-16T09:31:00.592Z,21.20
2018-05-16T09:33:28.061Z,21.00
2018-05-16T09:35:55.553Z,20.90
2018-05-16T09:38:23.006Z,20.70
2018-05-16T09:40:50.495Z,20.60
2018-05-16T09:43:17.947Z,20.40
2018-05-16T09:45:45.484Z,20.40
2018-05-16T09:48:12.919Z,20.20
2018-05-16T09:50:40.399Z,20.20
2018-05-16T09:53:07.888Z,20.20
2018-05-16T09:55:35.368Z,20.20
2018-05-16T09:58:02.838Z,20.20
2018-05-16T10:00:32.324Z,20.20
2018-05-16T10:02:59.775Z,20.20
2018-05-16T10:05:27.269Z,20.20
2018-05-16T10:07:54.791Z,20.30
2018-05-16T10:10:23.052Z,20.50
2018-05-16T10:12:50.533Z,20.50
2018-05-16T10:15:18.000Z,20.50
2018-05-16T10:17:46.255Z,20.30
2018-05-16T10:20:13.826Z,20.30
2018-05-16T10:22:41.207Z,20.20
2018-05-16T10:25:08.699Z,20.20
2018-05-16T10:27:36.195Z,20.10
2018-05-16T10:30:03.760Z,20.10
2018-05-16T10:32:31.224Z,20.10
2018-05-16T10:34:59.469Z,20.30
2018-05-16T10:37:26.934Z,20.30
2018-05-16T10:39:54.408Z,20.40
2018-05-16T10:42:21.864Z,20.50
2018-05-16T10:44:49.350Z,20.60
2018-05-16T10:47:17.745Z,20.60
2018-05-16T10:49:45.231Z,20.60
2018-05-16T10:52:12.781Z,20.60
2018-05-16T10:54:40.984Z,20.70
2018-05-16T10:57:08.472Z,20.70
2018-05-16T10:59:36.775Z,20.80
2018-05-16T11:02:04.266Z,20.80
2018-05-16T11:04:31.760Z,20.80
2018-05-16T11:06:59.240Z,20.80
2018-05-16T11:09:26.700Z,21.00
2018-05-16T11:11:54.184Z,21.40
2018-05-16T11:14:21.754Z,21.70
2018-05-16T11:16:49.248Z,22.10
2018-05-16T11:19:16.711Z,22.40
2018-05-16T11:21:44.172Z,22.60
2018-05-16T11:24:11.656Z,23.00
2018-05-16T11:26:39.128Z,23.30
2018-05-16T11:29:06.694Z,23.40
2018-05-16T11:31:34.177Z,23.50
2018-05-16T11:34:01.664Z,23.60
2018-05-16T11:36:29.242Z,23.70
2018-05-16T11:38:56.610Z,23.90
2018-05-16T11:41:24.100Z,24.20
2018-05-16T11:43:51.557Z,24.40
2018-05-16T11:46:19.253Z,24.60
2018-05-16T11:48:46.803Z,24.70
2018-05-16T11:51:14.222Z,24.70
2018-05-16T11:53:41.753Z,24.90
2018-05-16T11:56:09.221Z,25.00
2018-05-16T11:58:36.703Z,25.00
2018-05-16T12:01:04.188Z,25.10
2018-05-16T12:03:31.681Z,25.30
2018-05-16T12:05:59.927Z,25.80
2018-05-16T12:08:27.395Z,25.80
2018-05-16T12:10:54.897Z,25.90
2018-05-16T12:13:22.368Z,26.00
2018-05-16T12:15:49.858Z,26.30
2018-05-16T12:18:17.315Z,26.30
2018-05-16T12:20:44.786Z,26.50
2018-05-16T12:23:12.271Z,26.80
2018-05-16T12:25:39.767Z,26.90
2018-05-16T12:28:07.248Z,27.00
2018-05-16T12:30:34.748Z,27.10
2018-05-16T12:33:02.982Z,27.10
2018-05-16T12:35:30.478Z,27.00
2018-05-16T12:37:58.720Z,26.60
2018-05-16T12:40:26.180Z,26.60
2018-05-16T12:43:05.372Z,26.40
2018-05-16T12:45:32.862Z,26.30
2018-05-16T12:48:00.368Z,26.10
2018-05-16T12:50:27.823Z,26.10
2018-05-16T12:52:55.279Z,26.00
2018-05-16T12:55:22.794Z,25.90
2018-05-16T12:57:50.268Z,25.80
2018-05-16T13:00:17.764Z,25.80
2018-05-16T13:02:46.185Z,26.00
2018-05-16T13:05:13.679Z,26.00
2018-05-16T13:07:41.148Z,26.20
2018-05-16T13:10:09.473Z,26.80
2018-05-16T13:12:36.936Z,26.80
2018-05-16T13:15:04.418Z,27.00
2018-05-16T13:17:31.892Z,27.10
2018-05-16T13:22:33.307Z,27.50
2018-05-16T13:25:00.808Z,27.80
2018-05-16T13:27:28.292Z,28.10
2018-05-16T13:29:56.523Z,27.70
2018-05-16T13:32:24.009Z,27.70
2018-05-16T13:34:51.468Z,27.50
2018-05-16T13:37:18.955Z,27.30
2018-05-16T13:39:46.417Z,27.40
2018-05-16T13:42:13.980Z,28.40
2018-05-16T13:44:41.439Z,30.30
2018-05-16T13:47:08.899Z,31.60
2018-05-16T13:49:36.409Z,31.50
2018-05-16T13:52:04.144Z,31.30
2018-05-16T13:54:31.767Z,31.10
2018-05-16T13:57:00.030Z,33.30
2018-05-16T13:59:27.487Z,33.30
2018-05-16T14:01:54.984Z,34.20
2018-05-16T14:04:22.432Z,35.00
2018-05-16T14:06:49.897Z,35.40
2018-05-16T14:09:17.386Z,35.40
2018-05-16T14:11:45.644Z,36.00
2018-05-16T14:14:13.142Z,36.00
2018-05-16T14:16:40.630Z,37.60
2018-05-16T14:19:08.885Z,37.90
2018-05-16T14:21:36.352Z,37.90
2018-05-16T14:24:04.616Z,39.30
2018-05-16T14:26:32.073Z,39.20
2018-05-16T14:28:59.561Z,40.10
2018-05-16T14:31:27.793Z,40.30
2018-05-16T14:33:55.280Z,40.20
2018-05-16T14:36:23.530Z,35.80
2018-05-16T14:38:51.167Z,35.80
2018-05-16T14:41:18.787Z,34.20
2018-05-16T14:43:46.508Z,33.00
2018-05-16T14:46:14.240Z,31.90
2018-05-16T14:48:41.829Z,31.30
2018-05-16T14:51:09.646Z,31.70
2018-05-16T14:53:38.093Z,31.00
2018-05-16T14:56:05.582Z,30.90
2018-05-16T14:58:33.074Z,30.50
2018-05-16T15:01:00.608Z,31.00
2018-05-16T15:03:28.863Z,30.00
2018-05-16T15:05:56.333Z,30.00
2018-05-16T15:08:23.826Z,29.50
2018-05-16T15:10:51.327Z,29.20
2018-05-16T15:13:18.816Z,29.10
2018-05-16T15:15:47.035Z,28.70
2018-05-16T15:18:14.519Z,28.70
2018-05-16T15:20:41.992Z,29.60
2018-05-16T15:23:09.478Z,30.20
2018-05-16T15:25:37.824Z,29.10
2018-05-16T15:28:05.758Z,29.00
2018-05-16T15:30:33.312Z,28.30
2018-05-16T15:33:00.963Z,27.80
2018-05-16T15:35:28.595Z,27.60
2018-05-16T15:37:56.151Z,28.20
2018-05-16T15:40:23.827Z,29.00
2018-05-16T15:42:51.300Z,29.50
2018-05-16T15:45:18.792Z,29.40
2018-05-16T15:47:46.268Z,29.00
2018-05-16T15:50:13.761Z,29.00
2018-05-16T15:52:41.979Z,28.20
2018-05-16T15:55:09.631Z,28.10
2018-05-16T15:57:37.113Z,27.70
2018-05-16T16:00:04.649Z,27.20
2018-05-16T16:02:32.134Z,27.00
2018-05-16T16:04:59.626Z,26.90
2018-05-16T16:07:27.096Z,26.70
2018-05-16T16:09:54.551Z,26.40
2018-05-16T16:12:22.034Z,26.30
2018-05-16T16:14:49.489Z,26.00
2018-05-16T16:17:16.976Z,25.70
2018-05-16T16:19:44.518Z,25.50
2018-05-16T16:22:12.113Z,25.30
2018-05-16T16:24:39.595Z,25.20
2018-05-16T16:29:41.812Z,24.90
2018-05-16T16:32:09.397Z,24.90
2018-05-16T16:34:36.875Z,24.80
2018-05-16T16:37:04.344Z,24.70
2018-05-16T16:39:31.832Z,24.70
2018-05-16T16:42:00.052Z,24.60
2018-05-16T16:44:27.519Z,24.60
2018-05-16T16:46:54.980Z,24.50
2018-05-16T16:49:22.465Z,24.50
2018-05-16T16:51:49.956Z,24.30
2018-05-16T16:54:17.413Z,24.30
2018-05-16T16:56:44.873Z,24.20
2018-05-16T16:59:12.432Z,24.10
2018-05-16T17:01:39.940Z,23.90
2018-05-16T17:04:07.421Z,23.70
2018-05-16T17:06:34.876Z,23.50
2018-05-16T17:09:02.636Z,23.30
2018-05-16T17:11:31.048Z,23.30
2018-05-16T17:13:58.646Z,23.20
2018-05-16T17:16:26.168Z,23.30
2018-05-16T17:18:53.891Z,23.60
2018-05-16T17:21:21.515Z,24.00
2018-05-16T17:23:49.136Z,23.90
2018-05-16T17:26:17.587Z,23.30
2018-05-16T17:28:45.043Z,23.30
2018-05-16T17:31:12.535Z,23.10
2018-05-16T17:33:40.245Z,23.00
2018-05-16T17:36:07.752Z,22.90
2018-05-16T17:38:35.411Z,22.90
2018-05-16T17:41:02.906Z,22.90
2018-05-16T17:43:30.535Z,22.80
2018-05-16T17:45:58.475Z,22.80
2018-05-16T17:48:26.241Z,22.70
2018-05-16T17:50:54.735Z,22.40
2018-05-16T17:53:22.993Z,22.10
2018-05-16T17:55:50.471Z,22.10
2018-05-16T17:58:17.954Z,21.90
2018-05-16T18:00:45.654Z,21.80
2018-05-16T18:03:13.331Z,21.80
2018-05-16T18:05:41.129Z,21.80
2018-05-16T18:08:08.859Z,21.80
2018-05-16T18:10:36.497Z,21.70
2018-05-16T18:16:27.150Z,21.20
2018-05-16T18:18:54.851Z,20.90
2018-05-16T18:21:22.648Z,20.80
2018-05-16T18:23:50.183Z,20.70
2018-05-16T18:26:17.648Z,20.60
2018-05-16T18:28:45.187Z,20.50
2018-05-16T18:31:12.673Z,20.30
2018-05-16T18:33:40.140Z,20.20
2018-05-16T18:36:07.716Z,20.10
2018-05-16T18:38:35.089Z,20.00
2018-05-16T18:41:02.542Z,19.90
2018-05-16T18:43:30.011Z,19.80
2018-05-16T18:45:57.476Z,19.60
2018-05-16T18:48:24.957Z,19.50
2018-05-16T18:50:52.440Z,19.30
2018-05-16T18:53:20.675Z,19.20
2018-05-16T18:55:48.183Z,19.20
2018-05-16T18:58:16.557Z,19.00
2018-05-16T19:00:44.032Z,19.00
2018-05-16T19:03:11.516Z,19.00
2018-05-16T19:05:39.315Z,18.90
2018-05-16T19:08:06.671Z,18.80
2018-05-16T19:10:34.357Z,18.80
2018-05-16T19:13:01.892Z,18.70
2018-05-16T19:15:29.567Z,18.70
2018-05-16T19:17:57.121Z,18.60
2018-05-16T19:20:25.398Z,18.60
2018-05-16T19:22:52.893Z,18.60
2018-05-16T19:25:21.143Z,18.50
2018-05-16T19:27:48.597Z,18.50
2018-05-16T19:30:16.115Z,18.40
2018-05-16T19:32:43.997Z,18.30
2018-05-16T19:35:11.496Z,18.30
2018-05-16T19:37:38.955Z,18.20
2018-05-16T19:40:06.532Z,18.10
2018-05-16T19:42:34.877Z,18.10
2018-05-16T19:45:02.436Z,18.10
2018-05-16T19:47:29.888Z,18.00
2018-05-16T19:49:57.427Z,17.90
2018-05-16T19:52:24.939Z,17.80
2018-05-16T19:54:53.375Z,17.60
2018-05-16T19:57:21.902Z,17.50
2018-05-16T19:59:49.411Z,17.50
2018-05-16T20:02:17.053Z,17.40
2018-05-16T20:04:44.903Z,17.40
2018-05-16T20:07:12.375Z,17.30
2018-05-16T20:09:40.072Z,17.20
2018-05-16T20:12:07.865Z,17.10
2018-05-16T20:14:35.619Z,17.10
2018-05-16T20:17:03.349Z,17.10
2018-05-16T20:19:30.947Z,17.10
2018-05-16T20:21:58.436Z,17.10
2018-05-16T20:24:25.885Z,17.00
2018-05-16T20:26:54.132Z,16.90
2018-05-16T20:29:21.814Z,16.90
2018-05-16T20:31:50.175Z,16.80
2018-05-16T20:34:17.623Z,16.80
2018-05-16T20:36:45.084Z,16.80
2018-05-16T20:39:12.641Z,16.80
2018-05-16T20:41:40.865Z,16.70
2018-05-16T20:44:08.328Z,16.70
2018-05-16T20:46:35.804Z,16.60
2018-05-16T20:49:03.462Z,16.60
2018-05-16T20:51:31.387Z,16.50
2018-05-16T20:53:58.901Z,16.40
2018-05-16T20:56:26.388Z,16.40
2018-05-16T20:58:53.883Z,16.30
2018-05-16T21:01:21.364Z,16.30
2018-05-16T21:03:48.823Z,16.30
2018-05-16T21:06:16.461Z,16.30
2018-05-16T21:08:44.709Z,16.20
2018-05-16T21:11:12.249Z,16.10
2018-05-16T21:13:39.722Z,16.10
2018-05-16T21:16:07.192Z,16.00
2018-05-16T21:18:34.742Z,16.00
2018-05-16T21:21:02.237Z,15.90
2018-05-16T21:23:29.868Z,15.90
2018-05-16T21:25:57.325Z,16.00
2018-05-16T21:28:24.805Z,15.80
2018-05-16T21:30:53.037Z,15.80
2018-05-16T21:33:20.543Z,15.80
2018-05-16T21:35:48.025Z,15.70
2018-05-16T21:38:15.539Z,15.60
2018-05-16T21:40:43.048Z,15.60
2018-05-16T21:43:10.501Z,15.60
2018-05-16T21:45:37.960Z,15.50
2018-05-16T21:48:05.446Z,15.50
2018-05-16T21:50:32.887Z,15.50
2018-05-16T21:53:00.369Z,15.50
2018-05-16T21:55:27.854Z,15.50
2018-05-16T21:57:55.330Z,15.40
2018-05-16T22:00:22.916Z,15.40
2018-05-16T22:02:50.406Z,15.30
2018-05-16T22:05:17.883Z,15.30
2018-05-16T22:07:45.368Z,15.20
2018-05-16T22:10:12.824Z,15.10
2018-05-16T22:12:40.324Z,15.10
2018-05-16T22:15:07.796Z,15.10
2018-05-16T22:17:35.276Z,15.00
2018-05-16T22:20:02.756Z,14.90
2018-05-16T22:22:30.979Z,14.80
2018-05-16T22:24:58.468Z,14.80
2018-05-16T22:27:25.936Z,14.80
2018-05-16T22:29:53.389Z,14.70
2018-05-16T22:32:26.589Z,14.60
2018-05-16T22:34:59.787Z,14.60
2018-05-16T22:37:32.841Z,14.50
2018-05-16T22:40:05.968Z,14.40
2018-05-16T22:42:33.724Z,14.30
2018-05-16T22:45:06.896Z,14.30
2018-05-16T22:47:34.371Z,14.20
2018-05-16T22:50:01.873Z,14.10
2018-05-16T22:52:29.470Z,14.00
2018-05-16T22:54:56.932Z,14.00
2018-05-16T22:57:24.420Z,13.90
2018-05-16T22:59:52.652Z,13.80
2018-05-16T23:02:20.208Z,13.70
2018-05-16T23:04:47.663Z,13.70
2018-05-16T23:07:15.134Z,13.60
2018-05-16T23:09:42.631Z,13.50
2018-05-16T23:12:10.100Z,13.50
2018-05-16T23:14:38.339Z,13.40
2018-05-16T23:17:05.791Z,13.30
2018-05-16T23:19:33.268Z,13.30
2018-05-16T23:22:00.751Z,13.30
2018-05-16T23:24:28.439Z,13.20
2018-05-16T23:26:55.898Z,13.20
2018-05-16T23:29:23.360Z,13.20
2018-05-16T23:31:50.834Z,13.20
2018-05-16T23:34:19.085Z,13.10
2018-05-16T23:36:46.557Z,13.00
2018-05-16T23:39:14.030Z,13.00
2018-05-16T23:41:41.506Z,12.90
2018-05-16T23:44:09.068Z,12.90
2018-05-16T23:46:36.528Z,12.90
2018-05-16T23:49:04.012Z,12.80
2018-05-16T23:51:32.283Z,12.80
2018-05-16T23:53:59.752Z,12.70
2018-05-16T23:56:27.211Z,12.70
2018-05-16T23:58:54.919Z,12.70
